To NAV CANADA Home Page Login to a new session Search on AWWS site Disclaimer Vers la page française équivalente Tips FAQ What's new on the site To the Forecasts and Observations / NOTAM section To "File a Flight Plan" website Publications and other links Update of the User's profile FIC Telephone Numbers My Weather Data Folder Route Weather Data Regional Weather Data Local Weather Data To the Forecasts and Observations / NOTAM section
Request Generated 10/19/2018 at 16:02:32 UTC . Weather information available at that time is displayed.

METAR/TAF

WHITECOURT/AB    

METAR CYZU 191500Z 28006KT 15SM SCT200 BKN230 M01/M04 A3030 RMK CC3CI3 SLP295=
METAR CYZU 191400Z 28002KT 15SM SCT220 M02/M04 A3030 RMK CI4 FROIN SLP292=
METAR CYZU 191300Z VRB02KT 15SM FEW085 M02/M04 A3029 RMK AC1 SLP286=

TAF CYZU 191410Z 1914/1923 VRB03KT P6SM SCT220
FM192100 13006KT P6SM FEW120 SCT220
RMK NXT FCST BY 191900Z=
Your time UTC time
Weather data provided by Environment Canada and NAV CANADA